• Join FlightAware (Why Join?)
  • Login
  • US Flag 
Trick or treat! (Boo!!) 
05:21AM EDT


 

Airport Tracker/Info


-or-


 

Live Flight TrackerFlight Track Log ✈ SWA22 ✈ 16-Apr-2013 ✈ KDAL - KSAT

Flight Track Log - Related Links

Times and Time Zones

All times are in EDT time to prevent confusion due to time zone crossing. See the SWA22 flight status page for this flight to view local times or setup timezone preferences in your user account.

Time Position Orientation Groundspeed Altitude Reporting Facility
EDT Latitude Longitude Course Direction KTS MPH feet Rate Location/Type
01:59PM 32.7333 -96.7667 168° South 252 290 5,300  Level Dallas / Fort Worth TRACON
02:01PM 32.5942 -96.8708 212° Southwest 287 330 11,300 3,060 Climbing Fort Worth Center
02:02PM 32.5025 -96.9256 207° Southwest 329 379 15,300 3,240 Climbing Fort Worth Center
02:03PM 32.4649 -97.0448 191° South  Level Estimated
02:03PM 32.4275 -96.9728 208° Southwest 339 390 17,800  Level Fort Worth Center
02:04PM 32.3317 -97.0297 207° Southwest 350 403 20,700 2,460 Climbing Fort Worth Center
02:05PM 32.2442 -97.0597 196° South 350 403 22,800 2,100 Climbing Fort Worth Center
02:06PM 32.1272 -97.0650 182° South 367 422 25,000 1,620 Climbing Fort Worth Center
02:07PM 32.0167 -97.0703 182° South 393 452 26,100 480 Climbing Fort Worth Center
02:08PM 31.9081 -97.0733 181° South 418 481 26,000 -120 Descending Fort Worth Center
02:09PM 31.8653 -97.0728 179° South 437 503 26,000  Level Houston Center
02:09PM 31.7850 -97.0761 182° South 437 503 26,000  Level Fort Worth Center
02:10PM 31.6514 -97.0789 181° South 437 503 26,000  Level Fort Worth Center
02:11PM 31.6183 -97.0800 182° South 438 504 26,000  Level Houston Center
02:12PM 31.4975 -97.0953 186° South 435 501 26,000  Level Houston Center
02:13PM 31.3817 -97.1417 199° South 434 499 26,000  Level Houston Center
02:14PM 31.2672 -97.1864 198° South 431 496 26,000  Level Houston Center
02:15PM 31.1333 -97.2383 198° South 431 496 26,000 -600 Level Houston Center
02:16PM 31.0214 -97.2811 198° South 425 489 24,800 -1,020 Descending Houston Center
02:17PM 30.9167 -97.3236 199° South 417 480 24,000 -900 Descending Houston Center
02:18PM 30.8069 -97.3650 198° South 417 480 23,000 -1,200 Descending Houston Center
02:19PM 30.6792 -97.4142 198° South 411 473 21,600 -1,440 Descending Houston Center
02:20PM 30.5750 -97.4547 199° South 395 455 20,000 -1,200 Descending Houston Center
02:21PM 30.4703 -97.4956 199° South 392 451 19,200 -1,020 Descending Houston Center
02:22PM 30.3603 -97.5397 199° South 409 471 18,000 -1,080 Descending Houston Center
02:23PM 30.2669 -97.6064 212° Southwest 391 450 17,000 -960 Descending Houston Center
02:24PM 30.1711 -97.6736 211° Southwest 396 456 16,100 -960 Descending Houston Center
02:25PM 30.0900 -97.7311 212° Southwest 402 463 15,300 -1,080 Descending Houston Center
02:25PM 30.0597 -97.7497 208° Southwest 401 461 15,000 -1,080 Descending Houston Center
02:26PM 29.9672 -97.8131 211° Southwest 389 448 13,900 -1,140 Descending Houston Center
02:27PM 29.9400 -97.8322 211° Southwest 382 440 13,500 -900 Descending Houston Center
02:27PM 29.8828 -97.8981 225° Southwest 387 445 13,000 -900 Descending Houston Center
02:28PM 29.8361 -98.0072 244° Southwest 383 441 12,000 -1,380 Descending Houston Center
02:29PM 29.7892 -98.1186 244° Southwest 358 412 10,200 -1,500 Descending Houston Center
02:30PM 29.7528 -98.2047 244° Southwest 303 349 8,900 -1,440 Descending Houston Center
02:31PM 29.7144 -98.2933 244° Southwest 288 331 7,300 -1,500 Descending Houston Center
02:32PM 29.6897 -98.3731 250° West 272 313 5,900 -1,020 Descending Houston Center
02:33PM 29.6911 -98.4586 221° Southwest 253 291 5,300 -840 Descending Houston Center
02:34PM 29.6050 -98.4253 221° Southwest  Level Estimated
02:35PM 29.6925 -98.5356 271° West 238 274 4,200  Level Houston Center
02:36PM 29.6569 -98.6017 238° Southwest 223 257 3,000 -660 Descending Houston Center
02:37PM 29.6131 -98.5781 155° Southeast 179 206 2,900 -540 Descending Houston Center
02:38PM 29.5794 -98.5314 130° Southeast 177 204 1,900 -840 Descending Houston Center
02:39PM 29.5556 -98.5000 131° Southeast 137 158 1,200 -540 Descending Houston Center
02:40PM 29.5342 -98.4717 131° Southeast 134 154 900 -300 Descending Houston Center
02:42PM 29.5333 -98.4667 16° North  Level FlightAware Approximate
02:49PM 29.5340 -98.4691 16° North  Level Estimated